DAL1728 KPIT-KATL
Flight info
| Callsign | DAL1728 |
|---|---|
| Flight time | 1h 19m |
| Altitude | 34000 |
| Route | AHTIY BURGS HVQ HLRRY ONDRE1 |
| Aircraft | B752/M-SDE2E3FGHIJ3J4J7RWXY/LB1 |
Departure
| Time | 2026-05-06 23:15 |
|---|---|
| Airport | Pittsburgh International Airport (KPIT) |
Arrival
| Time | 2026-05-07 00:34 |
|---|---|
| Airport | Hartsfield Jackson Atlanta International Airport (KATL) |
| Time | Latitude | Longitude | Altitude | Speed | Heading |
|---|---|---|---|---|---|
| 2026-05-06 22:57 | 40.49712 | -80.24689 | 1214 ft | 0 kts | 226° |
| 2026-05-06 23:08 | 40.49717 | -80.24681 | 1214 ft | 2 kts | 225° |
| 2026-05-06 23:08 | 40.49731 | -80.24666 | 1214 ft | 3 kts | 213° |
| 2026-05-06 23:08 | 40.49748 | -80.24654 | 1214 ft | 3 kts | 200° |
| 2026-05-06 23:09 | 40.49768 | -80.24648 | 1214 ft | 3 kts | 186° |
| 2026-05-06 23:09 | 40.49789 | -80.24648 | 1214 ft | 3 kts | 174° |
| 2026-05-06 23:09 | 40.49793 | -80.24648 | 1214 ft | 0 kts | 172° |
| 2026-05-06 23:10 | 40.49789 | -80.24645 | 1214 ft | 2 kts | 142° |
| 2026-05-06 23:11 | 40.49778 | -80.24606 | 1214 ft | 8 kts | 96° |
| 2026-05-06 23:11 | 40.49801 | -80.24511 | 1214 ft | 14 kts | 51° |
| 2026-05-06 23:11 | 40.49881 | -80.24391 | 1214 ft | 20 kts | 48° |
| 2026-05-06 23:11 | 40.49908 | -80.24201 | 1214 ft | 22 kts | 97° |
| 2026-05-06 23:12 | 40.49901 | -80.23981 | 1214 ft | 26 kts | 89° |
| 2026-05-06 23:12 | 40.49922 | -80.23816 | 1214 ft | 16 kts | 89° |
| 2026-05-06 23:12 | 40.49919 | -80.23657 | 1214 ft | 19 kts | 91° |
| 2026-05-06 23:12 | 40.49934 | -80.23475 | 1214 ft | 21 kts | 72° |
| 2026-05-06 23:13 | 40.50004 | -80.23362 | 1214 ft | 13 kts | 6° |
| 2026-05-06 23:13 | 40.50086 | -80.23360 | 1214 ft | 9 kts | 0° |
| 2026-05-06 23:13 | 40.50129 | -80.23369 | 1214 ft | 4 kts | 326° |
| 2026-05-06 23:13 | 40.50137 | -80.23401 | 1214 ft | 6 kts | 271° |
| 2026-05-06 23:14 | 40.50144 | -80.23654 | 1214 ft | 51 kts | 273° |
| 2026-05-06 23:14 | 40.50162 | -80.24298 | 1214 ft | 91 kts | 274° |
| 2026-05-06 23:14 | 40.50189 | -80.25304 | 1214 ft | 125 kts | 273° |
| 2026-05-06 23:14 | 40.50218 | -80.26553 | 1220 ft | 151 kts | 274° |
| 2026-05-06 23:15 | 40.50118 | -80.27959 | 1356 ft | 166 kts | 253° |
| 2026-05-06 23:15 | 40.49326 | -80.29115 | 1667 ft | 177 kts | 211° |
| 2026-05-06 23:15 | 40.48116 | -80.29457 | 2065 ft | 182 kts | 179° |
| 2026-05-06 23:15 | 40.46843 | -80.29230 | 2501 ft | 189 kts | 171° |
| 2026-05-06 23:16 | 40.45519 | -80.28914 | 2939 ft | 199 kts | 171° |
| 2026-05-06 23:16 | 40.44113 | -80.28565 | 3335 ft | 213 kts | 171° |
| 2026-05-06 23:16 | 40.42626 | -80.28214 | 3775 ft | 227 kts | 176° |
| 2026-05-06 23:16 | 40.40987 | -80.28302 | 4253 ft | 238 kts | 189° |
| 2026-05-06 23:17 | 40.39304 | -80.28617 | 4721 ft | 251 kts | 191° |
| 2026-05-06 23:17 | 40.37554 | -80.28977 | 5215 ft | 262 kts | 192° |
| 2026-05-06 23:17 | 40.35739 | -80.29354 | 5878 ft | 265 kts | 192° |
| 2026-05-06 23:17 | 40.33913 | -80.29730 | 6595 ft | 266 kts | 193° |
| 2026-05-06 23:18 | 40.32076 | -80.30111 | 7320 ft | 267 kts | 193° |
| 2026-05-06 23:18 | 40.30238 | -80.30489 | 8016 ft | 268 kts | 194° |
| 2026-05-06 23:18 | 40.28393 | -80.30869 | 8691 ft | 269 kts | 194° |
| 2026-05-06 23:18 | 40.26543 | -80.31251 | 9373 ft | 270 kts | 194° |
| 2026-05-06 23:19 | 40.24682 | -80.31634 | 10051 ft | 272 kts | 195° |
| 2026-05-06 23:19 | 40.22765 | -80.32035 | 10457 ft | 285 kts | 195° |
| 2026-05-06 23:19 | 40.20761 | -80.32457 | 10843 ft | 299 kts | 195° |
| 2026-05-06 23:19 | 40.18659 | -80.32899 | 11230 ft | 312 kts | 195° |
| 2026-05-06 23:20 | 40.16466 | -80.33360 | 11602 ft | 326 kts | 195° |
| 2026-05-06 23:20 | 40.14186 | -80.33837 | 12002 ft | 338 kts | 195° |
| 2026-05-06 23:20 | 40.11844 | -80.34322 | 12625 ft | 343 kts | 195° |
| 2026-05-06 23:20 | 40.09470 | -80.34809 | 13315 ft | 347 kts | 196° |
| 2026-05-06 23:21 | 40.07108 | -80.35293 | 14002 ft | 351 kts | 196° |
| 2026-05-06 23:21 | 40.04677 | -80.35790 | 14699 ft | 355 kts | 197° |
| 2026-05-06 23:21 | 40.02224 | -80.36290 | 15398 ft | 359 kts | 197° |
| 2026-05-06 23:21 | 39.99750 | -80.36795 | 16095 ft | 362 kts | 197° |
| 2026-05-06 23:22 | 39.97241 | -80.37306 | 16756 ft | 367 kts | 198° |
| 2026-05-06 23:22 | 39.94704 | -80.37822 | 17413 ft | 371 kts | 198° |
| 2026-05-06 23:22 | 39.92181 | -80.38505 | 17942 ft | 370 kts | 206° |
| 2026-05-06 23:22 | 39.89846 | -80.39843 | 18448 ft | 364 kts | 218° |
| 2026-05-06 23:23 | 39.87753 | -80.41662 | 19191 ft | 358 kts | 224° |
| 2026-05-06 23:23 | 39.85782 | -80.43624 | 19956 ft | 356 kts | 225° |
| 2026-05-06 23:23 | 39.83815 | -80.45583 | 20668 ft | 357 kts | 224° |
| 2026-05-06 23:23 | 39.81809 | -80.47511 | 21299 ft | 360 kts | 224° |
| 2026-05-06 23:24 | 39.79771 | -80.49418 | 21894 ft | 362 kts | 223° |
| 2026-05-06 23:24 | 39.77710 | -80.51329 | 22461 ft | 364 kts | 224° |
| 2026-05-06 23:24 | 39.75665 | -80.53227 | 23003 ft | 367 kts | 224° |
| 2026-05-06 23:24 | 39.73586 | -80.55160 | 23554 ft | 368 kts | 224° |
| 2026-05-06 23:25 | 39.71472 | -80.57129 | 24094 ft | 370 kts | 224° |
| 2026-05-06 23:25 | 39.69390 | -80.59058 | 24606 ft | 373 kts | 223° |
| 2026-05-06 23:25 | 39.67258 | -80.60989 | 25114 ft | 375 kts | 223° |
| 2026-05-06 23:25 | 39.65102 | -80.62917 | 25600 ft | 377 kts | 223° |
| 2026-05-06 23:26 | 39.62935 | -80.64850 | 26064 ft | 379 kts | 223° |
| 2026-05-06 23:26 | 39.60756 | -80.66797 | 26521 ft | 381 kts | 223° |
| 2026-05-06 23:26 | 39.58564 | -80.68758 | 26974 ft | 383 kts | 223° |
| 2026-05-06 23:26 | 39.56360 | -80.70730 | 27407 ft | 385 kts | 223° |
| 2026-05-06 23:27 | 39.54150 | -80.72706 | 27826 ft | 387 kts | 223° |
| 2026-05-06 23:27 | 39.51922 | -80.74696 | 28238 ft | 389 kts | 223° |
| 2026-05-06 23:27 | 39.49680 | -80.76697 | 28646 ft | 391 kts | 223° |
| 2026-05-06 23:27 | 39.47460 | -80.78676 | 29016 ft | 394 kts | 223° |
| 2026-05-06 23:28 | 39.45163 | -80.80724 | 29368 ft | 396 kts | 223° |
| 2026-05-06 23:28 | 39.42916 | -80.82723 | 29810 ft | 396 kts | 223° |
| 2026-05-06 23:28 | 39.40643 | -80.84741 | 30311 ft | 395 kts | 224° |
| 2026-05-06 23:28 | 39.38383 | -80.86746 | 30797 ft | 393 kts | 224° |
| 2026-05-06 23:29 | 39.36131 | -80.88744 | 31274 ft | 392 kts | 224° |
| 2026-05-06 23:29 | 39.33887 | -80.90735 | 31711 ft | 391 kts | 224° |
| 2026-05-06 23:29 | 39.31645 | -80.92723 | 32142 ft | 390 kts | 224° |
| 2026-05-06 23:29 | 39.29414 | -80.94701 | 32559 ft | 389 kts | 225° |
| 2026-05-06 23:30 | 39.27190 | -80.96670 | 32976 ft | 387 kts | 225° |
| 2026-05-06 23:30 | 39.24965 | -80.98637 | 33375 ft | 386 kts | 225° |
| 2026-05-06 23:30 | 39.22754 | -81.00591 | 33761 ft | 385 kts | 225° |
| 2026-05-06 23:30 | 39.20546 | -81.02542 | 33915 ft | 384 kts | 225° |
| 2026-05-06 23:31 | 39.18345 | -81.04486 | 33959 ft | 383 kts | 225° |
| 2026-05-06 23:31 | 39.13942 | -81.08370 | 33975 ft | 384 kts | 225° |
| 2026-05-06 23:32 | 39.09531 | -81.12253 | 33976 ft | 384 kts | 225° |
| 2026-05-06 23:32 | 39.05116 | -81.16132 | 33976 ft | 384 kts | 225° |
| 2026-05-06 23:33 | 39.00697 | -81.20009 | 33975 ft | 384 kts | 225° |
| 2026-05-06 23:33 | 38.96303 | -81.23859 | 33977 ft | 384 kts | 225° |
| 2026-05-06 23:34 | 38.91881 | -81.27727 | 33976 ft | 385 kts | 225° |
| 2026-05-06 23:34 | 38.88203 | -81.30939 | 33976 ft | 384 kts | 225° |
| 2026-05-06 23:35 | 38.83784 | -81.34793 | 33977 ft | 385 kts | 225° |
| 2026-05-06 23:35 | 38.79358 | -81.38649 | 33976 ft | 385 kts | 225° |
| 2026-05-06 23:36 | 38.74924 | -81.42504 | 33977 ft | 385 kts | 225° |
| 2026-05-06 23:36 | 38.70492 | -81.46353 | 33977 ft | 385 kts | 225° |
| 2026-05-06 23:37 | 38.66050 | -81.50204 | 33976 ft | 386 kts | 225° |
| 2026-05-06 23:37 | 38.61594 | -81.54063 | 33978 ft | 388 kts | 225° |
| 2026-05-06 23:38 | 38.57090 | -81.57959 | 33979 ft | 392 kts | 225° |
| 2026-05-06 23:38 | 38.52594 | -81.61829 | 33977 ft | 388 kts | 225° |
| 2026-05-06 23:39 | 38.48111 | -81.65696 | 33979 ft | 390 kts | 225° |
| 2026-05-06 23:39 | 38.43606 | -81.69572 | 33978 ft | 389 kts | 225° |
| 2026-05-06 23:40 | 38.39117 | -81.73428 | 33978 ft | 390 kts | 225° |
| 2026-05-06 23:40 | 38.34495 | -81.77140 | 33976 ft | 400 kts | 219° |
| 2026-05-06 23:41 | 38.29247 | -81.79726 | 33984 ft | 414 kts | 212° |
| 2026-05-06 23:41 | 38.23677 | -81.81982 | 33984 ft | 420 kts | 212° |
| 2026-05-06 23:42 | 38.18192 | -81.84326 | 33985 ft | 417 kts | 212° |
| 2026-05-06 23:42 | 38.12718 | -81.86729 | 33987 ft | 416 kts | 212° |
| 2026-05-06 23:43 | 38.07258 | -81.89124 | 33989 ft | 415 kts | 212° |
| 2026-05-06 23:43 | 38.01807 | -81.91499 | 33990 ft | 413 kts | 212° |
| 2026-05-06 23:44 | 37.96356 | -81.93873 | 33990 ft | 415 kts | 212° |
| 2026-05-06 23:44 | 37.90879 | -81.96255 | 33988 ft | 417 kts | 212° |
| 2026-05-06 23:45 | 37.85386 | -81.98635 | 33989 ft | 418 kts | 212° |
| 2026-05-06 23:45 | 37.79889 | -82.01014 | 33989 ft | 416 kts | 212° |
| 2026-05-06 23:46 | 37.74424 | -82.03374 | 33992 ft | 414 kts | 212° |
| 2026-05-06 23:46 | 37.68968 | -82.05733 | 33996 ft | 415 kts | 212° |
| 2026-05-06 23:47 | 37.63486 | -82.08100 | 33996 ft | 416 kts | 212° |
| 2026-05-06 23:47 | 37.58010 | -82.10452 | 33994 ft | 414 kts | 212° |
| 2026-05-06 23:48 | 37.52592 | -82.12781 | 33992 ft | 414 kts | 212° |
| 2026-05-06 23:48 | 37.47110 | -82.15139 | 33993 ft | 418 kts | 212° |
| 2026-05-06 23:49 | 37.41593 | -82.17503 | 33993 ft | 419 kts | 212° |
| 2026-05-06 23:49 | 37.36073 | -82.19857 | 33990 ft | 418 kts | 212° |
| 2026-05-06 23:50 | 37.30577 | -82.22202 | 33991 ft | 417 kts | 212° |
| 2026-05-06 23:50 | 37.22326 | -82.25725 | 33993 ft | 418 kts | 212° |
| 2026-05-06 23:51 | 37.16799 | -82.28078 | 33993 ft | 421 kts | 211° |
| 2026-05-06 23:51 | 37.11251 | -82.30433 | 33993 ft | 421 kts | 211° |
| 2026-05-06 23:52 | 37.05747 | -82.32924 | 33997 ft | 419 kts | 214° |
| 2026-05-06 23:52 | 37.00459 | -82.35925 | 33994 ft | 415 kts | 217° |
| 2026-05-06 23:53 | 36.95229 | -82.38974 | 33996 ft | 416 kts | 216° |
| 2026-05-06 23:53 | 36.89982 | -82.41944 | 33995 ft | 413 kts | 216° |
| 2026-05-06 23:54 | 36.84764 | -82.44882 | 33996 ft | 414 kts | 216° |
| 2026-05-06 23:54 | 36.79500 | -82.47846 | 33994 ft | 414 kts | 216° |
| 2026-05-06 23:55 | 36.74252 | -82.50797 | 33988 ft | 413 kts | 216° |
| 2026-05-06 23:55 | 36.68996 | -82.53750 | 33984 ft | 414 kts | 216° |
| 2026-05-06 23:56 | 36.63738 | -82.56699 | 33979 ft | 413 kts | 216° |
| 2026-05-06 23:56 | 36.58516 | -82.59621 | 33975 ft | 413 kts | 216° |
| 2026-05-06 23:57 | 36.53221 | -82.62587 | 33975 ft | 417 kts | 216° |
| 2026-05-06 23:57 | 36.47956 | -82.65520 | 33972 ft | 413 kts | 216° |
| 2026-05-06 23:58 | 36.42727 | -82.68433 | 33971 ft | 412 kts | 216° |
| 2026-05-06 23:58 | 36.37488 | -82.71352 | 33972 ft | 412 kts | 216° |
| 2026-05-06 23:59 | 36.32259 | -82.74259 | 33975 ft | 412 kts | 216° |
| 2026-05-06 23:59 | 36.27015 | -82.77169 | 33977 ft | 412 kts | 216° |
| 2026-05-07 00:00 | 36.21806 | -82.80132 | 33978 ft | 411 kts | 217° |
| 2026-05-07 00:00 | 36.17548 | -82.82656 | 33979 ft | 411 kts | 217° |
| 2026-05-07 00:01 | 36.11483 | -82.86250 | 33981 ft | 415 kts | 217° |
| 2026-05-07 00:01 | 36.06279 | -82.89298 | 33980 ft | 413 kts | 217° |
| 2026-05-07 00:02 | 36.01082 | -82.92342 | 33981 ft | 414 kts | 217° |
| 2026-05-07 00:02 | 35.95915 | -82.95370 | 33982 ft | 414 kts | 216° |
| 2026-05-07 00:03 | 35.90692 | -82.98426 | 33986 ft | 416 kts | 216° |
| 2026-05-07 00:03 | 35.85447 | -83.01485 | 33987 ft | 416 kts | 216° |
| 2026-05-07 00:04 | 35.80210 | -83.04535 | 33997 ft | 416 kts | 216° |
| 2026-05-07 00:04 | 35.74984 | -83.07578 | 33999 ft | 415 kts | 216° |
| 2026-05-07 00:05 | 35.69759 | -83.10618 | 34002 ft | 415 kts | 217° |
| 2026-05-07 00:05 | 35.64539 | -83.13651 | 34006 ft | 415 kts | 217° |
| 2026-05-07 00:06 | 35.59317 | -83.16680 | 34011 ft | 415 kts | 216° |
| 2026-05-07 00:06 | 35.54094 | -83.19707 | 34023 ft | 415 kts | 215° |
| 2026-05-07 00:07 | 35.48937 | -83.22685 | 34035 ft | 409 kts | 215° |
| 2026-05-07 00:07 | 35.43804 | -83.25648 | 34048 ft | 408 kts | 215° |
| 2026-05-07 00:08 | 35.38647 | -83.28585 | 34054 ft | 409 kts | 215° |
| 2026-05-07 00:08 | 35.33474 | -83.31504 | 34056 ft | 410 kts | 215° |
| 2026-05-07 00:09 | 35.28294 | -83.34426 | 34057 ft | 410 kts | 215° |
| 2026-05-07 00:09 | 35.23113 | -83.37349 | 34057 ft | 410 kts | 215° |
| 2026-05-07 00:10 | 35.17908 | -83.40285 | 33778 ft | 414 kts | 215° |
| 2026-05-07 00:10 | 35.15283 | -83.41763 | 33464 ft | 416 kts | 214° |
| 2026-05-07 00:10 | 35.12640 | -83.43250 | 32890 ft | 419 kts | 214° |
| 2026-05-07 00:11 | 35.09983 | -83.44743 | 32316 ft | 422 kts | 214° |
| 2026-05-07 00:11 | 35.07304 | -83.46249 | 31756 ft | 425 kts | 214° |
| 2026-05-07 00:11 | 35.04618 | -83.47780 | 31184 ft | 428 kts | 214° |
| 2026-05-07 00:11 | 35.01918 | -83.49336 | 30602 ft | 431 kts | 214° |
| 2026-05-07 00:12 | 34.99203 | -83.50906 | 30020 ft | 434 kts | 214° |
| 2026-05-07 00:12 | 34.96463 | -83.52490 | 29431 ft | 437 kts | 214° |
| 2026-05-07 00:12 | 34.93750 | -83.54052 | 28845 ft | 435 kts | 214° |
| 2026-05-07 00:12 | 34.91019 | -83.55615 | 28258 ft | 429 kts | 214° |
| 2026-05-07 00:13 | 34.88331 | -83.57151 | 27709 ft | 424 kts | 214° |
| 2026-05-07 00:13 | 34.85670 | -83.58677 | 27142 ft | 421 kts | 214° |
| 2026-05-07 00:13 | 34.83030 | -83.60192 | 26574 ft | 418 kts | 213° |
| 2026-05-07 00:13 | 34.80406 | -83.61698 | 26012 ft | 415 kts | 213° |
| 2026-05-07 00:14 | 34.77802 | -83.63190 | 25457 ft | 411 kts | 213° |
| 2026-05-07 00:14 | 34.75218 | -83.64669 | 24903 ft | 408 kts | 213° |
| 2026-05-07 00:14 | 34.72658 | -83.66134 | 24357 ft | 405 kts | 213° |
| 2026-05-07 00:14 | 34.70118 | -83.67585 | 23813 ft | 402 kts | 213° |
| 2026-05-07 00:15 | 34.67596 | -83.69026 | 23275 ft | 398 kts | 213° |
| 2026-05-07 00:15 | 34.65100 | -83.70451 | 22741 ft | 395 kts | 213° |
| 2026-05-07 00:15 | 34.62633 | -83.71858 | 22184 ft | 391 kts | 213° |
| 2026-05-07 00:15 | 34.60182 | -83.73260 | 21657 ft | 387 kts | 213° |
| 2026-05-07 00:16 | 34.57750 | -83.74653 | 21145 ft | 386 kts | 213° |
| 2026-05-07 00:16 | 34.55319 | -83.76044 | 20616 ft | 386 kts | 213° |
| 2026-05-07 00:16 | 34.52891 | -83.77430 | 20106 ft | 386 kts | 213° |
| 2026-05-07 00:16 | 34.51284 | -83.78349 | 19763 ft | 385 kts | 213° |
| 2026-05-07 00:17 | 34.48084 | -83.80172 | 19092 ft | 381 kts | 212° |
| 2026-05-07 00:17 | 34.45695 | -83.81531 | 18585 ft | 377 kts | 212° |
| 2026-05-07 00:17 | 34.43326 | -83.82878 | 18101 ft | 376 kts | 212° |
| 2026-05-07 00:17 | 34.40956 | -83.84231 | 17604 ft | 375 kts | 212° |
| 2026-05-07 00:18 | 34.38605 | -83.85569 | 17093 ft | 373 kts | 212° |
| 2026-05-07 00:18 | 34.37019 | -83.86472 | 16784 ft | 371 kts | 211° |
| 2026-05-07 00:18 | 34.34698 | -83.87791 | 16300 ft | 366 kts | 211° |
| 2026-05-07 00:18 | 34.32400 | -83.89115 | 15910 ft | 367 kts | 212° |
| 2026-05-07 00:19 | 34.30122 | -83.90521 | 15375 ft | 370 kts | 213° |
| 2026-05-07 00:19 | 34.27880 | -83.91964 | 14923 ft | 369 kts | 213° |
| 2026-05-07 00:19 | 34.25648 | -83.93392 | 14268 ft | 344 kts | 213° |
| 2026-05-07 00:19 | 34.23646 | -83.94657 | 13895 ft | 313 kts | 213° |
| 2026-05-07 00:20 | 34.21798 | -83.95820 | 13541 ft | 287 kts | 214° |
| 2026-05-07 00:20 | 34.20061 | -83.96928 | 13264 ft | 282 kts | 214° |
| 2026-05-07 00:20 | 34.18327 | -83.98040 | 13103 ft | 282 kts | 214° |
| 2026-05-07 00:20 | 34.16579 | -83.99149 | 13067 ft | 287 kts | 213° |
| 2026-05-07 00:21 | 34.14793 | -84.00277 | 13030 ft | 290 kts | 213° |
| 2026-05-07 00:21 | 34.13009 | -84.01396 | 13034 ft | 286 kts | 213° |
| 2026-05-07 00:21 | 34.11238 | -84.02512 | 12729 ft | 292 kts | 213° |
| 2026-05-07 00:21 | 34.09414 | -84.03669 | 12133 ft | 293 kts | 213° |
| 2026-05-07 00:22 | 34.07646 | -84.04775 | 11463 ft | 281 kts | 212° |
| 2026-05-07 00:22 | 34.05904 | -84.05874 | 10392 ft | 279 kts | 212° |
| 2026-05-07 00:22 | 34.04208 | -84.06944 | 9525 ft | 271 kts | 211° |
| 2026-05-07 00:22 | 34.02592 | -84.07960 | 9205 ft | 256 kts | 211° |
| 2026-05-07 00:23 | 34.01026 | -84.08906 | 9103 ft | 257 kts | 208° |
| 2026-05-07 00:23 | 33.99272 | -84.09465 | 9031 ft | 269 kts | 189° |
| 2026-05-07 00:23 | 33.97379 | -84.09265 | 9074 ft | 276 kts | 175° |
| 2026-05-07 00:23 | 33.95490 | -84.08734 | 9084 ft | 281 kts | 172° |
| 2026-05-07 00:24 | 33.93580 | -84.08224 | 9027 ft | 279 kts | 174° |
| 2026-05-07 00:24 | 33.91682 | -84.07800 | 9057 ft | 278 kts | 176° |
| 2026-05-07 00:24 | 33.89780 | -84.07367 | 8989 ft | 278 kts | 175° |
| 2026-05-07 00:24 | 33.87875 | -84.06902 | 8438 ft | 277 kts | 174° |
| 2026-05-07 00:25 | 33.86024 | -84.06429 | 7784 ft | 268 kts | 174° |
| 2026-05-07 00:25 | 33.84239 | -84.05975 | 7193 ft | 257 kts | 175° |
| 2026-05-07 00:25 | 33.82507 | -84.05549 | 6502 ft | 251 kts | 175° |
| 2026-05-07 00:25 | 33.80828 | -84.05138 | 6188 ft | 249 kts | 175° |
| 2026-05-07 00:26 | 33.79121 | -84.04721 | 6060 ft | 253 kts | 175° |
| 2026-05-07 00:26 | 33.77370 | -84.04297 | 5949 ft | 259 kts | 176° |
| 2026-05-07 00:26 | 33.75551 | -84.04106 | 5775 ft | 268 kts | 182° |
| 2026-05-07 00:26 | 33.73664 | -84.03889 | 5543 ft | 277 kts | 174° |
| 2026-05-07 00:27 | 33.71805 | -84.03296 | 5304 ft | 275 kts | 169° |
| 2026-05-07 00:27 | 33.69966 | -84.02948 | 5064 ft | 260 kts | 187° |
| 2026-05-07 00:27 | 33.68325 | -84.03548 | 5000 ft | 238 kts | 213° |
| 2026-05-07 00:27 | 33.67234 | -84.04919 | 5003 ft | 221 kts | 238° |
| 2026-05-07 00:28 | 33.66555 | -84.06522 | 4999 ft | 209 kts | 243° |
| 2026-05-07 00:28 | 33.65971 | -84.08079 | 4990 ft | 202 kts | 244° |
| 2026-05-07 00:28 | 33.65512 | -84.09669 | 4990 ft | 202 kts | 252° |
| 2026-05-07 00:28 | 33.65257 | -84.11339 | 5000 ft | 205 kts | 258° |
| 2026-05-07 00:29 | 33.65122 | -84.13022 | 5019 ft | 199 kts | 262° |
| 2026-05-07 00:29 | 33.65049 | -84.14672 | 4976 ft | 197 kts | 263° |
| 2026-05-07 00:30 | 33.64975 | -84.19634 | 4438 ft | 199 kts | 265° |
| 2026-05-07 00:30 | 33.64969 | -84.21298 | 4193 ft | 199 kts | 265° |
| 2026-05-07 00:30 | 33.64965 | -84.22956 | 3944 ft | 198 kts | 265° |
| 2026-05-07 00:30 | 33.64963 | -84.24610 | 3679 ft | 198 kts | 266° |
| 2026-05-07 00:31 | 33.64962 | -84.26262 | 3420 ft | 198 kts | 266° |
| 2026-05-07 00:31 | 33.64960 | -84.27909 | 3154 ft | 196 kts | 266° |
| 2026-05-07 00:31 | 33.64960 | -84.29508 | 2895 ft | 192 kts | 266° |
| 2026-05-07 00:31 | 33.64960 | -84.31093 | 2659 ft | 186 kts | 266° |
| 2026-05-07 00:32 | 33.64960 | -84.32608 | 2427 ft | 177 kts | 266° |
| 2026-05-07 00:32 | 33.64958 | -84.34042 | 2157 ft | 165 kts | 268° |
| 2026-05-07 00:32 | 33.64959 | -84.35317 | 1960 ft | 141 kts | 268° |
| 2026-05-07 00:32 | 33.64959 | -84.36457 | 1774 ft | 136 kts | 268° |
| 2026-05-07 00:33 | 33.64957 | -84.37593 | 1623 ft | 137 kts | 268° |
| 2026-05-07 00:33 | 33.64959 | -84.38749 | 1449 ft | 139 kts | 268° |
| 2026-05-07 00:33 | 33.64963 | -84.39909 | 1290 ft | 138 kts | 268° |
| 2026-05-07 00:33 | 33.64962 | -84.41064 | 1125 ft | 139 kts | 268° |
| 2026-05-07 00:34 | 33.64961 | -84.42164 | 1038 ft | 117 kts | 267° |
| 2026-05-07 00:34 | 33.64953 | -84.42956 | 1037 ft | 74 kts | 268° |
| 2026-05-07 00:34 | 33.64871 | -84.43318 | 1037 ft | 21 kts | 245° |
| 2026-05-07 00:34 | 33.64855 | -84.43368 | 1037 ft | 0 kts | 257° |
| 2026-05-07 00:36 | 33.64853 | -84.43378 | 1037 ft | 4 kts | 257° |
| 2026-05-07 00:36 | 33.64848 | -84.43434 | 1037 ft | 7 kts | 269° |
| 2026-05-07 00:36 | 33.64842 | -84.43505 | 1037 ft | 10 kts | 244° |
| 2026-05-07 00:36 | 33.64771 | -84.43570 | 1037 ft | 16 kts | 208° |
| 2026-05-07 00:37 | 33.64656 | -84.43645 | 1037 ft | 21 kts | 210° |
| 2026-05-07 00:37 | 33.64555 | -84.43733 | 1037 ft | 18 kts | 241° |
| 2026-05-07 00:37 | 33.64524 | -84.43856 | 1037 ft | 22 kts | 258° |
| 2026-05-07 00:37 | 33.64499 | -84.44035 | 1037 ft | 19 kts | 257° |
| 2026-05-07 00:38 | 33.64439 | -84.44121 | 1037 ft | 13 kts | 181° |
| 2026-05-07 00:38 | 33.64359 | -84.44095 | 1037 ft | 14 kts | 158° |
| 2026-05-07 00:38 | 33.64280 | -84.44061 | 1037 ft | 14 kts | 164° |
| 2026-05-07 00:38 | 33.64182 | -84.44050 | 1037 ft | 14 kts | 180° |
| 2026-05-07 00:39 | 33.64095 | -84.44050 | 1037 ft | 12 kts | 180° |
| 2026-05-07 00:39 | 33.64021 | -84.44050 | 1037 ft | 10 kts | 180° |
| 2026-05-07 00:39 | 33.63961 | -84.44050 | 1037 ft | 8 kts | 180° |
| 2026-05-07 00:39 | 33.63912 | -84.44049 | 1037 ft | 6 kts | 170° |
| 2026-05-07 00:40 | 33.63897 | -84.44026 | 1037 ft | 2 kts | 96° |
| 2026-05-07 00:40 | 33.63897 | -84.44016 | 1037 ft | 1 kts | 90° |
| 2026-05-07 00:40 | 33.63897 | -84.43978 | 1037 ft | 0 kts | 90° |